Time;durP1;ratioP1;P1;durP2;ratioP2;P2;SDS_P1;SDS_P2;PMS_P1;PMS_P2;Temp;Humidity;BMP_temperature;BMP_pressure;BME280_temperature;BME280_humidity;BME280_pressure;Samples;Min_cycle;Max_cycle;Signal;HPM_P1;HPM_P2
2021/06/26 00:00:47;;;;;;;;;;;21.00;69.30;;;;;;5037708;28;20390;-62
2021/06/26 00:03:13;;;;;;;;;;;21.00;69.30;;;;;;5033826;28;20008;-62
2021/06/26 00:05:38;;;;;;;;;;;21.00;69.30;;;;;;5042983;28;19917;-62
2021/06/26 00:08:04;;;;;;;;;;;21.00;69.10;;;;;;5036217;28;19975;-62
2021/06/26 00:10:29;;;;;;;;;;;21.00;69.40;;;;;;5041248;28;19987;-63
2021/06/26 00:12:55;;;;;;;;;;;21.00;69.30;;;;;;5043165;28;19921;-62
2021/06/26 00:15:20;;;;;;;;;;;21.00;69.30;;;;;;5032580;28;19924;-62
2021/06/26 00:17:46;;;;;;;;;;;21.00;69.30;;;;;;5039125;28;19921;-61
2021/06/26 00:20:11;;;;;;;;;;;21.00;69.40;;;;;;5028897;28;20288;-61
2021/06/26 00:22:37;;;;;;;;;;;21.00;69.20;;;;;;5045990;28;19916;-62
2021/06/26 00:25:03;;;;;;;;;;;21.00;69.20;;;;;;5037258;28;19921;-59
2021/06/26 00:27:30;;;;;;;;;;;21.00;69.30;;;;;;5040504;28;19944;-63
2021/06/26 00:29:55;;;;;;;;;;;21.00;69.30;;;;;;5046408;28;19920;-62
2021/06/26 00:32:21;;;;;;;;;;;21.00;69.20;;;;;;5042951;28;20288;-61
2021/06/26 00:34:46;;;;;;;;;;;21.00;69.20;;;;;;5031868;28;19968;-62
2021/06/26 00:37:12;;;;;;;;;;;21.00;69.10;;;;;;5040397;22;20043;-60
2021/06/26 00:39:37;;;;;;;;;;;21.00;69.30;;;;;;5041143;28;19952;-61
2021/06/26 00:42:03;;;;;;;;;;;21.00;69.30;;;;;;5052154;28;19916;-60
2021/06/26 00:44:28;;;;;;;;;;;21.00;69.30;;;;;;5041829;28;19928;-61
2021/06/26 00:46:54;;;;;;;;;;;21.00;69.10;;;;;;5046677;28;19920;-63
2021/06/26 00:49:19;;;;;;;;;;;21.00;69.20;;;;;;5028929;28;19916;-63
2021/06/26 00:51:44;;;;;;;;;;;21.00;69.10;;;;;;5054743;28;20385;-64
2021/06/26 00:54:10;;;;;;;;;;;21.00;69.10;;;;;;5058135;28;19970;-62
2021/06/26 00:56:35;;;;;;;;;;;21.00;69.00;;;;;;5051735;28;19920;-62
2021/06/26 00:59:01;;;;;;;;;;;21.00;69.10;;;;;;5051672;28;19929;-63
2021/06/26 01:01:26;;;;;;;;;;;21.00;69.80;;;;;;5038405;28;20412;-63
2021/06/26 01:03:52;;;;;;;;;;;21.00;69.20;;;;;;5050145;28;20000;-63
2021/06/26 01:06:17;;;;;;;;;;;21.00;69.20;;;;;;5046060;28;19921;-62
2021/06/26 01:08:43;;;;;;;;;;;21.00;69.20;;;;;;5041290;28;19948;-62
2021/06/26 01:11:08;;;;;;;;;;;21.00;69.20;;;;;;5045438;28;19982;-62
2021/06/26 01:13:34;;;;;;;;;;;20.90;68.90;;;;;;5051660;28;19916;-62
2021/06/26 01:15:59;;;;;;;;;;;20.90;68.90;;;;;;5052951;28;19966;-62
2021/06/26 01:18:25;;;;;;;;;;;20.90;69.00;;;;;;5045265;28;19923;-62
2021/06/26 01:20:51;;;;;;;;;;;20.90;69.00;;;;;;5043688;28;19925;-62
2021/06/26 01:23:17;;;;;;;;;;;20.90;69.10;;;;;;5043299;28;20004;-62
2021/06/26 01:25:42;;;;;;;;;;;21.00;69.20;;;;;;5043484;28;20397;-62
2021/06/26 01:28:08;;;;;;;;;;;21.00;69.10;;;;;;5060251;28;19920;-62
2021/06/26 01:30:33;;;;;;;;;;;21.00;69.00;;;;;;5043239;28;19924;-61
2021/06/26 01:32:59;;;;;;;;;;;21.00;69.10;;;;;;5043759;28;19921;-64
2021/06/26 01:35:25;;;;;;;;;;;21.00;69.10;;;;;;5049033;28;20456;-62
2021/06/26 01:37:50;;;;;;;;;;;21.00;68.90;;;;;;5046439;28;19943;-61
2021/06/26 01:40:20;;;;;;;;;;;20.90;68.90;;;;;;5042094;28;19925;-62
2021/06/26 01:42:46;;;;;;;;;;;21.00;69.60;;;;;;5046344;28;20027;-62
2021/06/26 01:45:11;;;;;;;;;;;20.90;68.90;;;;;;5046773;28;19931;-62
2021/06/26 01:47:37;;;;;;;;;;;20.90;68.90;;;;;;5047801;28;19920;-62
2021/06/26 01:50:04;;;;;;;;;;;20.90;68.90;;;;;;5022854;28;19980;-62
2021/06/26 01:52:29;;;;;;;;;;;20.90;68.90;;;;;;5032847;28;19917;-62
2021/06/26 01:54:55;;;;;;;;;;;20.90;68.80;;;;;;5034272;28;19917;-62
2021/06/26 01:57:20;;;;;;;;;;;20.90;68.90;;;;;;5012411;28;20007;-62
2021/06/26 01:59:46;;;;;;;;;;;20.90;68.90;;;;;;5044689;28;20297;-63
2021/06/26 02:02:11;;;;;;;;;;;21.00;68.90;;;;;;5043928;28;19970;-62
2021/06/26 02:04:37;;;;;;;;;;;20.90;68.80;;;;;;5031069;28;19917;-62
2021/06/26 02:07:02;;;;;;;;;;;21.00;68.90;;;;;;5041378;28;19923;-62
2021/06/26 02:09:28;;;;;;;;;;;20.90;68.80;;;;;;5037311;28;20279;-62
2021/06/26 02:11:53;;;;;;;;;;;21.00;68.90;;;;;;5043011;28;19960;-63
2021/06/26 02:14:19;;;;;;;;;;;20.90;68.80;;;;;;5042619;28;19924;-63
2021/06/26 02:16:44;;;;;;;;;;;20.90;68.70;;;;;;5042935;28;19924;-63
2021/06/26 02:19:09;;;;;;;;;;;20.90;68.60;;;;;;5042782;28;19917;-63
2021/06/26 02:21:35;;;;;;;;;;;20.90;68.60;;;;;;5042657;28;19917;-63
2021/06/26 02:24:00;;;;;;;;;;;20.90;68.60;;;;;;5043228;28;20389;-62
2021/06/26 02:26:26;;;;;;;;;;;20.90;68.60;;;;;;5036383;28;20255;-63
2021/06/26 02:28:51;;;;;;;;;;;20.90;68.50;;;;;;5044910;28;19920;-63
2021/06/26 02:31:17;;;;;;;;;;;20.90;68.40;;;;;;5043851;28;19917;-62
2021/06/26 02:33:42;;;;;;;;;;;20.90;68.50;;;;;;5040969;28;19936;-63
2021/06/26 02:36:08;;;;;;;;;;;20.90;68.30;;;;;;5040610;28;19928;-63
2021/06/26 02:38:33;;;;;;;;;;;20.90;68.40;;;;;;5042643;28;20027;-62
2021/06/26 02:40:59;;;;;;;;;;;20.90;68.40;;;;;;5041574;28;19916;-63
2021/06/26 02:43:24;;;;;;;;;;;20.90;68.30;;;;;;5042251;28;20593;-63
2021/06/26 02:45:50;;;;;;;;;;;20.90;68.40;;;;;;5041518;28;19917;-62
2021/06/26 02:48:15;;;;;;;;;;;20.90;68.30;;;;;;5040856;28;20573;-63
2021/06/26 02:50:41;;;;;;;;;;;20.90;68.30;;;;;;5039481;28;19998;-63
2021/06/26 02:53:06;;;;;;;;;;;20.90;68.30;;;;;;5039855;28;19952;-63
2021/06/26 02:55:32;;;;;;;;;;;20.90;68.20;;;;;;5041399;28;19924;-63
2021/06/26 02:57:57;;;;;;;;;;;20.90;68.20;;;;;;5040330;28;19921;-62
2021/06/26 03:00:23;;;;;;;;;;;20.90;68.20;;;;;;5041101;28;19921;-62
2021/06/26 03:02:48;;;;;;;;;;;20.90;68.20;;;;;;5040702;28;19917;-61
2021/06/26 03:05:14;;;;;;;;;;;20.90;68.00;;;;;;5041116;28;19917;-61
2021/06/26 03:07:39;;;;;;;;;;;20.90;68.20;;;;;;5045533;28;20289;-62
2021/06/26 03:10:05;;;;;;;;;;;20.90;68.00;;;;;;5038037;28;19917;-63
2021/06/26 03:12:30;;;;;;;;;;;20.90;68.00;;;;;;5039971;28;19955;-62
2021/06/26 03:14:56;;;;;;;;;;;20.90;68.00;;;;;;5040402;28;19924;-62
2021/06/26 03:17:21;;;;;;;;;;;20.90;68.00;;;;;;5042263;28;19927;-62
2021/06/26 03:19:47;;;;;;;;;;;20.90;68.00;;;;;;5040823;28;19932;-62
2021/06/26 03:22:12;;;;;;;;;;;20.90;68.00;;;;;;5040838;28;20107;-62
2021/06/26 03:24:38;;;;;;;;;;;20.90;67.90;;;;;;5041090;28;19917;-63
2021/06/26 03:27:03;;;;;;;;;;;20.90;67.80;;;;;;5021655;28;19953;-62
2021/06/26 03:29:29;;;;;;;;;;;20.90;67.90;;;;;;5041541;28;19917;-62
2021/06/26 03:31:54;;;;;;;;;;;20.90;67.80;;;;;;5046978;28;19932;-62
2021/06/26 03:34:20;;;;;;;;;;;20.90;67.80;;;;;;5042547;28;19928;-63
2021/06/26 03:36:46;;;;;;;;;;;20.90;67.80;;;;;;5040538;28;19920;-62
2021/06/26 03:39:11;;;;;;;;;;;20.90;67.90;;;;;;5041377;28;20046;-65
2021/06/26 03:41:37;;;;;;;;;;;20.90;67.80;;;;;;5042564;28;20015;-64
2021/06/26 03:44:02;;;;;;;;;;;20.90;67.80;;;;;;5042586;28;19917;-62
2021/06/26 03:46:28;;;;;;;;;;;20.90;67.80;;;;;;5042106;28;19920;-63
2021/06/26 03:48:54;;;;;;;;;;;20.90;67.70;;;;;;5041914;28;20305;-64
2021/06/26 03:51:19;;;;;;;;;;;20.90;67.80;;;;;;5041317;28;19923;-64
2021/06/26 03:53:46;;;;;;;;;;;20.80;67.70;;;;;;5043415;28;20385;-64
2021/06/26 03:56:12;;;;;;;;;;;20.90;67.90;;;;;;5040788;28;19943;-63
2021/06/26 03:58:37;;;;;;;;;;;20.80;67.80;;;;;;5043378;28;20370;-63
2021/06/26 04:01:03;;;;;;;;;;;20.90;67.70;;;;;;5042243;28;19970;-62
2021/06/26 04:03:28;;;;;;;;;;;20.80;67.70;;;;;;5041529;28;19923;-64
2021/06/26 04:05:54;;;;;;;;;;;20.80;67.70;;;;;;5042879;28;19917;-63
2021/06/26 04:08:19;;;;;;;;;;;20.80;67.70;;;;;;5041332;28;19924;-63
2021/06/26 04:10:45;;;;;;;;;;;20.80;67.80;;;;;;5042810;28;20556;-64
2021/06/26 04:13:10;;;;;;;;;;;20.80;67.70;;;;;;5042703;28;19921;-63
2021/06/26 04:15:36;;;;;;;;;;;20.80;67.60;;;;;;5042660;28;20337;-64
2021/06/26 04:18:01;;;;;;;;;;;20.80;67.80;;;;;;5042769;28;20267;-63
2021/06/26 04:20:27;;;;;;;;;;;20.80;67.60;;;;;;5038925;28;19921;-64
2021/06/26 04:22:52;;;;;;;;;;;20.80;67.60;;;;;;5041802;28;20011;-63
2021/06/26 04:25:18;;;;;;;;;;;20.80;67.50;;;;;;5042448;28;20036;-64
2021/06/26 04:27:44;;;;;;;;;;;20.80;67.60;;;;;;5041279;28;19956;-64
2021/06/26 04:30:09;;;;;;;;;;;20.80;67.50;;;;;;5041141;28;20360;-63
2021/06/26 04:32:36;;;;;;;;;;;20.80;67.40;;;;;;5069671;28;19917;-64
2021/06/26 04:35:03;;;;;;;;;;;20.80;67.50;;;;;;5029584;28;20556;-61
2021/06/26 04:37:28;;;;;;;;;;;20.80;67.50;;;;;;5024505;28;19975;-64
2021/06/26 04:39:54;;;;;;;;;;;20.80;67.30;;;;;;5031421;28;19924;-64
2021/06/26 04:42:20;;;;;;;;;;;20.80;67.30;;;;;;5041358;28;19924;-64
2021/06/26 04:44:45;;;;;;;;;;;20.80;67.20;;;;;;5042260;28;19999;-64
2021/06/26 04:47:11;;;;;;;;;;;20.80;67.10;;;;;;5042719;28;20286;-65
2021/06/26 04:49:36;;;;;;;;;;;20.80;67.00;;;;;;5040861;28;19917;-64
2021/06/26 04:52:02;;;;;;;;;;;20.90;67.00;;;;;;5040734;28;19916;-62
2021/06/26 04:54:27;;;;;;;;;;;20.90;66.90;;;;;;5042804;28;20482;-64
2021/06/26 04:56:53;;;;;;;;;;;20.90;66.90;;;;;;5041733;28;20309;-64
2021/06/26 04:59:19;;;;;;;;;;;20.80;67.10;;;;;;5040978;28;19917;-64
2021/06/26 05:01:44;;;;;;;;;;;20.90;67.30;;;;;;5041318;28;20607;-62
2021/06/26 05:04:10;;;;;;;;;;;20.90;67.40;;;;;;5026289;28;20377;-64
2021/06/26 05:06:35;;;;;;;;;;;20.80;67.50;;;;;;5045575;28;19921;-64
2021/06/26 05:09:01;;;;;;;;;;;20.90;67.70;;;;;;5050656;28;19920;-63
2021/06/26 05:11:26;;;;;;;;;;;20.90;67.80;;;;;;5045535;28;19923;-64
2021/06/26 05:13:51;;;;;;;;;;;20.90;67.90;;;;;;5045349;28;19917;-64
2021/06/26 05:16:17;;;;;;;;;;;20.90;68.00;;;;;;5045337;28;20011;-62
2021/06/26 05:18:43;;;;;;;;;;;20.90;68.10;;;;;;5027747;28;19917;-61
2021/06/26 05:21:08;;;;;;;;;;;20.90;68.20;;;;;;5042062;28;20298;-64
2021/06/26 05:23:34;;;;;;;;;;;20.80;68.20;;;;;;5052496;28;20366;-64
2021/06/26 05:25:59;;;;;;;;;;;20.90;68.30;;;;;;5045615;28;19986;-64
2021/06/26 05:28:24;;;;;;;;;;;20.90;68.40;;;;;;5048224;28;19916;-63
2021/06/26 05:30:50;;;;;;;;;;;20.90;68.40;;;;;;5042581;28;19943;-63
2021/06/26 05:33:16;;;;;;;;;;;20.90;68.50;;;;;;5048810;28;19924;-64
2021/06/26 05:35:41;;;;;;;;;;;20.90;68.50;;;;;;5046926;28;19978;-64
2021/06/26 05:38:06;;;;;;;;;;;20.90;68.60;;;;;;5032106;28;19975;-64
2021/06/26 05:40:32;;;;;;;;;;;20.90;68.70;;;;;;5050899;28;19977;-64
2021/06/26 05:42:57;;;;;;;;;;;20.90;68.80;;;;;;5047908;28;19949;-63
2021/06/26 05:45:23;;;;;;;;;;;20.90;68.60;;;;;;5046960;28;19974;-63
2021/06/26 05:47:48;;;;;;;;;;;20.80;68.50;;;;;;5047795;28;19959;-63
2021/06/26 05:50:14;;;;;;;;;;;20.90;68.70;;;;;;5052047;28;19919;-64
2021/06/26 05:52:46;;;;;;;;;;;20.90;68.60;;;;;;5044406;28;20482;-64
2021/06/26 05:55:11;;;;;;;;;;;20.90;68.70;;;;;;5045128;28;19924;-65
2021/06/26 05:57:37;;;;;;;;;;;20.90;68.60;;;;;;5044137;28;19920;-63
2021/06/26 06:00:03;;;;;;;;;;;20.90;68.70;;;;;;5044871;28;20375;-64
2021/06/26 06:02:29;;;;;;;;;;;20.90;68.70;;;;;;5043637;28;19921;-64
2021/06/26 06:04:54;;;;;;;;;;;20.90;68.60;;;;;;5044600;28;19970;-64
2021/06/26 06:07:20;;;;;;;;;;;20.90;68.80;;;;;;5050256;28;20397;-64
2021/06/26 06:09:45;;;;;;;;;;;20.80;68.50;;;;;;5046944;28;19916;-63
2021/06/26 06:12:11;;;;;;;;;;;20.90;68.50;;;;;;5045441;28;19920;-64
2021/06/26 06:14:36;;;;;;;;;;;20.80;68.50;;;;;;5046448;28;20179;-61
2021/06/26 06:17:02;;;;;;;;;;;20.90;68.50;;;;;;5044135;28;19928;-64
2021/06/26 06:19:27;;;;;;;;;;;20.80;68.40;;;;;;5050201;28;19921;-63
2021/06/26 06:21:52;;;;;;;;;;;20.90;68.50;;;;;;5046040;28;20688;-63
2021/06/26 06:24:18;;;;;;;;;;;20.90;69.00;;;;;;5046645;28;19920;-64
2021/06/26 06:26:43;;;;;;;;;;;20.90;68.50;;;;;;5054013;28;20377;-63
2021/06/26 06:29:09;;;;;;;;;;;20.80;68.40;;;;;;5046758;28;19940;-64
2021/06/26 06:31:34;;;;;;;;;;;20.90;68.40;;;;;;5062998;28;19999;-64
2021/06/26 06:34:00;;;;;;;;;;;20.80;68.30;;;;;;5063939;28;20304;-65
2021/06/26 06:39:00;;;;;;;;;;;20.90;68.30;;;;;;4995291;28;19929;-60
2021/06/26 06:41:26;;;;;;;;;;;20.90;68.40;;;;;;5005114;28;19926;-62
2021/06/26 06:43:51;;;;;;;;;;;20.80;68.30;;;;;;4999131;28;19956;-61
2021/06/26 06:46:17;;;;;;;;;;;20.80;68.50;;;;;;5000103;28;20329;-60
2021/06/26 06:48:42;;;;;;;;;;;20.80;68.20;;;;;;5000113;28;19932;-62
2021/06/26 06:51:08;;;;;;;;;;;20.90;68.30;;;;;;5001747;28;19918;-61
2021/06/26 06:53:33;;;;;;;;;;;20.90;68.60;;;;;;4996689;28;20318;-61
2021/06/26 06:55:58;;;;;;;;;;;20.90;68.20;;;;;;5015800;28;19917;-62
2021/06/26 06:58:24;;;;;;;;;;;20.90;68.20;;;;;;4998872;28;19980;-60
2021/06/26 07:00:50;;;;;;;;;;;20.90;68.20;;;;;;4994567;28;19932;-62
2021/06/26 07:03:15;;;;;;;;;;;20.80;68.20;;;;;;5002527;28;20481;-60
2021/06/26 07:05:41;;;;;;;;;;;20.80;68.20;;;;;;5002012;28;19925;-62
2021/06/26 07:08:06;;;;;;;;;;;20.80;68.20;;;;;;4983187;28;19917;-60
2021/06/26 07:10:32;;;;;;;;;;;20.80;68.40;;;;;;5009276;28;19931;-61
2021/06/26 07:12:57;;;;;;;;;;;20.80;68.40;;;;;;5016679;28;20397;-62
2021/06/26 07:15:23;;;;;;;;;;;20.80;68.30;;;;;;5002432;28;19921;-61
2021/06/26 07:17:48;;;;;;;;;;;20.80;68.40;;;;;;5000458;28;19921;-62
2021/06/26 07:20:13;;;;;;;;;;;20.80;68.50;;;;;;5009001;28;20302;-61
2021/06/26 07:22:39;;;;;;;;;;;20.80;68.60;;;;;;5016879;28;19921;-62
2021/06/26 07:25:05;;;;;;;;;;;20.80;68.60;;;;;;5015320;28;19921;-60
2021/06/26 07:27:30;;;;;;;;;;;20.80;68.80;;;;;;5013819;28;20409;-61
2021/06/26 07:29:56;;;;;;;;;;;20.80;68.80;;;;;;5017739;28;20026;-61
2021/06/26 07:32:21;;;;;;;;;;;20.80;68.70;;;;;;5003640;28;19918;-61
2021/06/26 07:34:46;;;;;;;;;;;20.80;68.70;;;;;;5013031;28;20282;-62
2021/06/26 07:37:12;;;;;;;;;;;20.80;68.60;;;;;;5003267;28;19925;-66
2021/06/26 07:39:37;;;;;;;;;;;20.80;68.70;;;;;;5004456;28;20034;-61
2021/06/26 07:42:03;;;;;;;;;;;20.80;68.80;;;;;;5018441;28;19924;-60
2021/06/26 07:44:28;;;;;;;;;;;20.80;68.70;;;;;;5000851;28;20528;-62
2021/06/26 07:46:54;;;;;;;;;;;20.90;68.70;;;;;;5018879;28;19917;-61
2021/06/26 07:49:19;;;;;;;;;;;20.80;68.70;;;;;;5017825;28;19917;-60
2021/06/26 07:51:45;;;;;;;;;;;20.80;68.60;;;;;;5016430;28;19928;-60
2021/06/26 07:54:10;;;;;;;;;;;20.90;68.80;;;;;;5007275;28;20441;-61
2021/06/26 07:56:36;;;;;;;;;;;20.90;68.90;;;;;;5014177;28;25333;-61
2021/06/26 07:59:02;;;;;;;;;;;20.80;68.60;;;;;;5013839;28;19936;-61
2021/06/26 08:01:27;;;;;;;;;;;20.80;68.60;;;;;;5017630;28;19917;-61
2021/06/26 08:03:53;;;;;;;;;;;20.80;68.50;;;;;;5019291;28;19913;-62
2021/06/26 08:06:18;;;;;;;;;;;20.80;68.10;;;;;;5004460;28;19917;-61
2021/06/26 08:08:44;;;;;;;;;;;20.80;68.00;;;;;;5029200;28;20471;-61
2021/06/26 08:11:09;;;;;;;;;;;20.80;67.90;;;;;;5009076;28;19924;-61
2021/06/26 08:13:35;;;;;;;;;;;20.80;67.90;;;;;;5011326;28;20351;-61
2021/06/26 08:16:00;;;;;;;;;;;20.80;67.80;;;;;;5006243;28;19917;-61
2021/06/26 08:18:26;;;;;;;;;;;20.80;68.00;;;;;;5020476;28;19920;-60
2021/06/26 08:20:51;;;;;;;;;;;20.80;68.00;;;;;;5016120;28;20294;-61
2021/06/26 08:23:17;;;;;;;;;;;20.80;67.80;;;;;;5017027;28;19913;-67
2021/06/26 08:25:42;;;;;;;;;;;20.80;67.60;;;;;;5021312;28;19924;-62
2021/06/26 08:28:07;;;;;;;;;;;20.80;67.40;;;;;;5023390;28;19914;-61
2021/06/26 08:30:33;;;;;;;;;;;20.80;67.50;;;;;;5018435;28;20003;-61
2021/06/26 08:32:58;;;;;;;;;;;20.80;67.40;;;;;;5012405;28;19913;-60
2021/06/26 08:35:24;;;;;;;;;;;20.80;67.40;;;;;;5017686;28;19925;-62
2021/06/26 08:37:50;;;;;;;;;;;20.80;67.40;;;;;;5016482;28;20043;-61
2021/06/26 08:40:16;;;;;;;;;;;20.80;67.30;;;;;;5003090;28;19914;-61
2021/06/26 08:42:41;;;;;;;;;;;20.80;67.30;;;;;;5013303;28;19920;-62
2021/06/26 08:45:08;;;;;;;;;;;20.80;67.60;;;;;;5008287;28;20537;-60
2021/06/26 08:47:33;;;;;;;;;;;20.80;67.60;;;;;;5025823;28;19913;-61
2021/06/26 08:49:59;;;;;;;;;;;20.80;67.50;;;;;;5019660;28;19914;-60
2021/06/26 08:52:24;;;;;;;;;;;20.80;67.40;;;;;;5021074;28;19925;-61
2021/06/26 08:54:50;;;;;;;;;;;20.80;67.40;;;;;;5022082;28;20430;-61
2021/06/26 08:57:24;;;;;;;;;;;20.80;67.30;;;;;;5019094;28;19937;-60
2021/06/26 08:59:50;;;;;;;;;;;20.80;67.40;;;;;;5009917;28;20745;-61
2021/06/26 09:02:21;;;;;;;;;;;20.90;67.30;;;;;;5025390;28;19913;-60
2021/06/26 09:04:47;;;;;;;;;;;20.90;67.40;;;;;;4998729;28;19921;-62
2021/06/26 09:07:12;;;;;;;;;;;20.90;67.50;;;;;;4993689;28;20035;-61
2021/06/26 09:09:38;;;;;;;;;;;20.80;67.50;;;;;;5013960;28;19932;-61
2021/06/26 09:12:07;;;;;;;;;;;20.90;67.70;;;;;;4998546;28;20263;-62
2021/06/26 09:14:33;;;;;;;;;;;20.90;67.80;;;;;;5004817;28;19957;-61
2021/06/26 09:16:58;;;;;;;;;;;20.80;67.70;;;;;;4988643;28;19967;-62
2021/06/26 09:19:24;;;;;;;;;;;20.80;67.80;;;;;;5006510;28;19925;-62
2021/06/26 09:21:56;;;;;;;;;;;20.90;67.50;;;;;;5001809;28;19922;-61
2021/06/26 09:24:22;;;;;;;;;;;20.90;67.20;;;;;;5014205;28;19917;-61
2021/06/26 09:26:57;;;;;;;;;;;20.90;67.10;;;;;;4995929;28;20555;-61
2021/06/26 09:29:23;;;;;;;;;;;20.80;67.10;;;;;;5006779;28;19924;-62
2021/06/26 09:31:52;;;;;;;;;;;20.80;67.10;;;;;;5003258;28;19922;-62
2021/06/26 09:34:18;;;;;;;;;;;20.90;67.10;;;;;;5008841;28;19971;-61
2021/06/26 09:36:43;;;;;;;;;;;20.80;67.10;;;;;;5009375;28;19921;-62
2021/06/26 09:39:11;;;;;;;;;;;20.80;67.30;;;;;;5005604;28;19957;-61
2021/06/26 09:41:38;;;;;;;;;;;20.80;67.20;;;;;;4999175;28;19917;-60
2021/06/26 09:44:10;;;;;;;;;;;20.90;67.50;;;;;;5015707;28;20217;-62
2021/06/26 09:46:46;;;;;;;;;;;20.80;67.70;;;;;;5022141;28;20621;-62
2021/06/26 09:49:11;;;;;;;;;;;20.90;67.90;;;;;;4990056;28;20407;-62
2021/06/26 09:51:36;;;;;;;;;;;20.90;68.10;;;;;;5003351;28;19967;-62
2021/06/26 09:54:03;;;;;;;;;;;20.90;68.30;;;;;;4996149;28;19963;-62
2021/06/26 09:56:37;;;;;;;;;;;20.90;68.30;;;;;;5005913;28;19957;-62
2021/06/26 09:59:03;;;;;;;;;;;20.90;68.40;;;;;;4988308;28;19921;-61
2021/06/26 10:01:28;;;;;;;;;;;20.90;68.50;;;;;;4988293;28;19923;-62
2021/06/26 10:03:54;;;;;;;;;;;20.90;68.20;;;;;;4988334;28;19935;-62
2021/06/26 10:06:20;;;;;;;;;;;20.90;68.30;;;;;;5005244;28;19924;-62
2021/06/26 10:08:46;;;;;;;;;;;20.90;68.10;;;;;;4988415;28;20371;-62
2021/06/26 10:11:11;;;;;;;;;;;20.90;68.10;;;;;;5004349;28;19932;-61
2021/06/26 10:13:37;;;;;;;;;;;20.90;67.80;;;;;;5006115;28;20371;-61
2021/06/26 10:16:03;;;;;;;;;;;20.90;67.80;;;;;;5005664;28;19918;-62
2021/06/26 10:18:28;;;;;;;;;;;20.90;67.50;;;;;;5006066;28;19924;-62
2021/06/26 10:20:54;;;;;;;;;;;20.90;67.10;;;;;;5006016;28;20634;-62
2021/06/26 10:23:19;;;;;;;;;;;20.90;67.10;;;;;;4988180;28;19976;-63
2021/06/26 10:25:45;;;;;;;;;;;20.90;67.20;;;;;;5006160;28;19921;-62
2021/06/26 10:28:16;;;;;;;;;;;20.90;67.20;;;;;;4987557;28;20000;-61
2021/06/26 10:30:41;;;;;;;;;;;20.90;67.20;;;;;;5005543;28;19921;-62
2021/06/26 10:33:08;;;;;;;;;;;20.90;67.40;;;;;;5004966;28;21642;-62
2021/06/26 10:35:35;;;;;;;;;;;20.90;67.40;;;;;;5004803;28;19924;-60
2021/06/26 10:38:00;;;;;;;;;;;21.00;67.50;;;;;;4987527;28;20000;-61
2021/06/26 10:40:39;;;;;;;;;;;21.00;67.30;;;;;;5005125;28;20016;-62
2021/06/26 10:43:13;;;;;;;;;;;21.00;67.20;;;;;;5003983;28;20434;-62
2021/06/26 10:45:39;;;;;;;;;;;21.00;67.00;;;;;;5002819;28;19944;-62
2021/06/26 10:48:13;;;;;;;;;;;20.90;66.80;;;;;;5004977;28;19928;-61
2021/06/26 10:50:43;;;;;;;;;;;20.90;66.70;;;;;;4985558;28;19980;-62
2021/06/26 10:53:08;;;;;;;;;;;21.00;66.60;;;;;;4987688;28;19924;-60
2021/06/26 10:55:35;;;;;;;;;;;20.90;66.40;;;;;;5005236;28;19917;-62
2021/06/26 10:58:01;;;;;;;;;;;21.00;66.30;;;;;;5004815;28;20012;-61
2021/06/26 11:00:30;;;;;;;;;;;21.00;66.40;;;;;;4986446;28;19925;-62
2021/06/26 11:02:55;;;;;;;;;;;21.00;66.20;;;;;;5004234;28;19956;-62
2021/06/26 11:05:25;;;;;;;;;;;21.00;66.10;;;;;;5003500;28;20632;-61
2021/06/26 11:07:51;;;;;;;;;;;21.00;65.20;;;;;;5011515;28;19917;-62
2021/06/26 11:10:16;;;;;;;;;;;21.00;64.30;;;;;;5007512;28;19925;-62
2021/06/26 11:12:45;;;;;;;;;;;21.00;63.80;;;;;;5003670;28;19918;-62
2021/06/26 11:15:11;;;;;;;;;;;21.00;64.10;;;;;;5020879;28;20070;-61
2021/06/26 11:17:39;;;;;;;;;;;21.00;64.10;;;;;;5008186;28;20011;-61
2021/06/26 11:20:09;;;;;;;;;;;21.00;64.30;;;;;;5023311;28;19937;-60
2021/06/26 11:22:35;;;;;;;;;;;21.00;64.50;;;;;;4989672;28;19928;-61
2021/06/26 11:25:00;;;;;;;;;;;21.00;64.60;;;;;;5017817;28;20718;-62
2021/06/26 11:27:26;;;;;;;;;;;21.00;64.50;;;;;;5003058;28;19925;-61
2021/06/26 11:29:58;;;;;;;;;;;21.00;64.70;;;;;;5016181;28;19929;-61
2021/06/26 11:32:24;;;;;;;;;;;21.00;64.80;;;;;;4991277;28;20566;-68
2021/06/26 11:34:55;;;;;;;;;;;21.00;65.60;;;;;;4981714;28;20338;-62
2021/06/26 11:37:20;;;;;;;;;;;21.00;64.70;;;;;;4995113;28;19925;-60
2021/06/26 11:39:46;;;;;;;;;;;21.00;64.60;;;;;;5003432;28;19929;-62
2021/06/26 11:42:15;;;;;;;;;;;21.10;64.30;;;;;;4998859;28;19936;-60
2021/06/26 11:44:40;;;;;;;;;;;21.10;64.60;;;;;;4994139;28;20248;-62
2021/06/26 11:47:07;;;;;;;;;;;21.10;64.30;;;;;;5004656;28;19928;-61
2021/06/26 11:49:36;;;;;;;;;;;21.10;64.50;;;;;;4989999;28;19918;-60
2021/06/26 11:52:01;;;;;;;;;;;21.10;64.40;;;;;;4996176;28;19917;-62
2021/06/26 11:54:27;;;;;;;;;;;21.10;64.70;;;;;;5023720;28;19921;-62
2021/06/26 11:56:52;;;;;;;;;;;21.10;64.90;;;;;;4992167;28;19925;-61
2021/06/26 11:59:18;;;;;;;;;;;21.10;64.90;;;;;;4999920;28;20381;-61
2021/06/26 12:01:44;;;;;;;;;;;21.10;65.10;;;;;;4985251;28;19955;-62
2021/06/26 12:04:10;;;;;;;;;;;21.10;65.20;;;;;;4987290;28;19921;-62
2021/06/26 12:06:38;;;;;;;;;;;21.10;65.50;;;;;;4996278;28;19926;-61
2021/06/26 12:09:05;;;;;;;;;;;21.10;65.60;;;;;;5004066;28;19929;-62
2021/06/26 12:11:36;;;;;;;;;;;21.10;65.70;;;;;;4981203;28;20306;-61
2021/06/26 12:14:01;;;;;;;;;;;21.10;65.90;;;;;;4985921;28;19922;-61
2021/06/26 12:16:34;;;;;;;;;;;21.20;65.90;;;;;;5006026;28;20083;-62
2021/06/26 12:19:00;;;;;;;;;;;21.20;65.60;;;;;;5001508;28;19965;-62
2021/06/26 12:21:26;;;;;;;;;;;21.20;65.30;;;;;;5006525;28;20018;-60
2021/06/26 12:23:52;;;;;;;;;;;21.20;65.40;;;;;;5002031;28;19932;-60
2021/06/26 12:26:18;;;;;;;;;;;21.20;65.60;;;;;;5001402;28;19921;-61
2021/06/26 12:28:44;;;;;;;;;;;21.20;65.20;;;;;;5005381;28;20103;-61
2021/06/26 12:31:10;;;;;;;;;;;21.20;65.10;;;;;;4988347;28;19921;-60
2021/06/26 12:33:35;;;;;;;;;;;21.20;64.90;;;;;;5004183;28;19928;-61
2021/06/26 12:36:16;;;;;;;;;;;21.30;65.30;;;;;;4988476;28;19921;-61
2021/06/26 12:38:42;;;;;;;;;;;21.30;64.70;;;;;;5014041;22;19983;-64
2021/06/26 12:41:37;;;;;;;;;;;21.30;64.50;;;;;;5017839;28;19929;-63
2021/06/26 12:44:02;;;;;;;;;;;21.30;64.40;;;;;;4999119;28;19917;-65
2021/06/26 12:46:28;;;;;;;;;;;21.30;64.50;;;;;;5005003;28;20437;-64
2021/06/26 12:49:03;;;;;;;;;;;21.30;63.50;;;;;;5003937;28;19945;-65
2021/06/26 12:51:32;;;;;;;;;;;21.30;63.70;;;;;;5000587;28;19979;-62
2021/06/26 12:53:58;;;;;;;;;;;21.30;63.80;;;;;;5004191;28;19963;-64
2021/06/26 12:56:24;;;;;;;;;;;21.20;63.50;;;;;;5004086;28;19925;-64
2021/06/26 12:59:06;;;;;;;;;;;21.30;63.60;;;;;;5002451;28;19943;-64
2021/06/26 13:01:38;;;;;;;;;;;21.30;63.60;;;;;;5003067;28;19933;-63
2021/06/26 13:04:04;;;;;;;;;;;21.30;63.20;;;;;;5003370;28;20418;-63
2021/06/26 13:06:30;;;;;;;;;;;21.30;63.50;;;;;;5003959;28;19948;-63
2021/06/26 13:08:55;;;;;;;;;;;21.30;63.70;;;;;;5003559;28;20401;-64
2021/06/26 13:11:28;;;;;;;;;;;21.30;64.20;;;;;;5003269;28;19925;-64
2021/06/26 13:13:53;;;;;;;;;;;21.30;64.40;;;;;;5006369;28;19975;-63
2021/06/26 13:16:19;;;;;;;;;;;21.30;64.20;;;;;;5003883;28;20366;-64
2021/06/26 13:18:44;;;;;;;;;;;21.30;64.40;;;;;;5004935;28;19960;-63
2021/06/26 13:21:10;;;;;;;;;;;21.30;64.40;;;;;;5004393;28;19924;-63
2021/06/26 13:23:36;;;;;;;;;;;21.30;64.20;;;;;;5002055;28;19917;-64
2021/06/26 13:26:01;;;;;;;;;;;21.30;64.00;;;;;;5005314;28;19965;-64
2021/06/26 13:28:27;;;;;;;;;;;21.40;63.90;;;;;;5004079;28;20304;-66
2021/06/26 13:30:52;;;;;;;;;;;21.40;63.00;;;;;;5006104;28;19988;-63
2021/06/26 13:33:18;;;;;;;;;;;21.30;63.40;;;;;;5004496;28;19922;-64
2021/06/26 13:35:43;;;;;;;;;;;21.40;63.30;;;;;;5005083;28;19918;-63
2021/06/26 13:38:09;;;;;;;;;;;21.40;63.30;;;;;;5004603;28;19926;-64
2021/06/26 13:40:34;;;;;;;;;;;21.40;63.10;;;;;;5004129;28;19918;-63
2021/06/26 13:42:59;;;;;;;;;;;21.40;62.80;;;;;;5019731;28;20044;-61
2021/06/26 13:45:25;;;;;;;;;;;21.40;63.10;;;;;;5004678;28;19926;-64
2021/06/26 13:47:50;;;;;;;;;;;21.40;62.50;;;;;;5004154;28;20381;-63
2021/06/26 13:50:16;;;;;;;;;;;21.40;63.00;;;;;;5002827;28;19921;-63
2021/06/26 13:52:41;;;;;;;;;;;21.40;63.20;;;;;;5004590;28;19922;-64
2021/06/26 13:55:07;;;;;;;;;;;21.40;62.90;;;;;;5005252;28;20394;-63
2021/06/26 13:57:32;;;;;;;;;;;21.40;60.50;;;;;;5005920;28;19995;-63
2021/06/26 13:59:58;;;;;;;;;;;21.40;62.20;;;;;;5003277;28;20334;-64
2021/06/26 14:02:23;;;;;;;;;;;21.40;62.30;;;;;;5005034;28;19921;-63
2021/06/26 14:04:49;;;;;;;;;;;21.40;62.30;;;;;;5004823;28;19932;-63
2021/06/26 14:07:14;;;;;;;;;;;21.40;61.80;;;;;;5005069;28;19921;-63
2021/06/26 14:09:40;;;;;;;;;;;21.40;62.20;;;;;;5003335;28;19984;-61
2021/06/26 14:12:05;;;;;;;;;;;21.40;62.30;;;;;;5005118;28;20625;-64